createdAt,value
2023-05-21T00:02:09.057Z,99362.41
2023-05-21T00:04:36.152Z,99362.66
2023-05-21T00:07:03.153Z,99358.28
2023-05-21T00:09:30.083Z,99363.75
2023-05-21T00:11:57.018Z,99362.94
2023-05-21T00:14:24.132Z,99362.66
2023-05-21T00:16:51.094Z,99353.91
2023-05-21T00:19:19.546Z,99354.19
2023-05-21T00:21:46.537Z,99359.94
2023-05-21T00:24:13.408Z,99347.91
2023-05-21T00:26:40.510Z,99341.34
2023-05-21T00:29:07.383Z,99344.06
2023-05-21T00:31:36.011Z,99341.88
2023-05-21T00:34:03.480Z,99335.31
2023-05-21T00:36:31.951Z,99341.88
2023-05-21T00:38:58.855Z,99341.34
2023-05-21T00:41:25.985Z,99335.31
2023-05-21T00:43:52.935Z,99329.84
2023-05-21T00:46:22.851Z,99323.81
2023-05-21T00:48:52.069Z,99324.91
2023-05-21T00:51:19.536Z,99324.88
2023-05-21T00:53:51.320Z,99323.50
2023-05-21T00:56:19.608Z,99322.97
2023-05-21T00:58:46.624Z,99314.47
2023-05-21T01:01:14.142Z,99323.78
2023-05-21T01:03:43.243Z,99316.38
2023-05-21T01:06:11.563Z,99327.59
2023-05-21T01:08:40.045Z,99317.47
2023-05-21T01:11:10.980Z,99327.06
2023-05-21T01:13:41.983Z,99321.00
2023-05-21T01:16:10.336Z,99314.19
2023-05-21T01:18:38.424Z,99315.84
2023-05-21T01:21:06.280Z,99315.28
2023-05-21T01:23:35.110Z,99316.13
2023-05-21T01:26:02.221Z,99313.38
2023-05-21T01:28:29.224Z,99315.56
2023-05-21T01:31:04.844Z,99308.47
2023-05-21T01:33:41.364Z,99310.63
2023-05-21T01:36:17.082Z,99315.84
2023-05-21T01:38:56.755Z,99316.94
2023-05-21T01:41:29.540Z,99315.00
2023-05-21T01:43:57.372Z,99317.72
2023-05-21T01:46:30.607Z,99314.44
2023-05-21T01:48:58.122Z,99311.72
2023-05-21T01:51:27.160Z,99312.78
2023-05-21T01:53:55.455Z,99307.31
2023-05-21T01:56:22.373Z,99314.97
2023-05-21T01:58:49.310Z,99312.50
2023-05-21T02:05:47.832Z,99303.47
2023-05-21T02:08:15.582Z,99304.56
2023-05-21T02:10:44.141Z,99299.09
2023-05-21T02:13:11.407Z,99304.56
2023-05-21T02:15:38.442Z,99310.88
2023-05-21T02:18:05.877Z,99300.75
2023-05-21T02:20:33.465Z,99301.00
2023-05-21T02:23:00.534Z,99301.00
2023-05-21T02:25:27.408Z,99303.47
2023-05-21T02:27:55.943Z,99297.19
2023-05-21T02:30:22.851Z,99297.75
2023-05-21T02:32:49.718Z,99288.97
2023-05-21T02:35:16.775Z,99296.88
2023-05-21T02:37:44.364Z,99295.50
2023-05-21T02:40:12.760Z,99291.94
2023-05-21T02:42:40.679Z,99294.09
2023-05-21T02:45:12.950Z,99298.22
2023-05-21T02:47:42.084Z,99289.75
2023-05-21T02:50:09.951Z,99295.22
2023-05-21T02:52:44.210Z,99295.47
2023-05-21T02:55:11.196Z,99290.56
2023-05-21T02:57:38.219Z,99291.31
2023-05-21T03:00:07.054Z,99293.50
2023-05-21T03:02:36.145Z,99291.56
2023-05-21T03:05:03.382Z,99288.53
2023-05-21T03:07:50.926Z,99291.53
2023-05-21T03:10:25.799Z,99287.13
2023-05-21T03:12:53.090Z,99287.97
2023-05-21T03:15:21.237Z,99290.41
2023-05-21T03:17:49.628Z,99285.22
2023-05-21T03:20:16.800Z,99289.03
2023-05-21T03:22:44.260Z,99284.34
2023-05-21T03:25:11.365Z,99289.81
2023-05-21T03:27:39.782Z,99291.19
2023-05-21T03:30:53.901Z,99282.91
2023-05-21T03:33:54.807Z,99280.59
2023-05-21T03:36:25.089Z,99284.28
2023-05-21T03:38:52.420Z,99285.31
2023-05-21T03:41:20.549Z,99292.31
2023-05-21T03:43:51.846Z,99287.97
2023-05-21T03:46:21.344Z,99290.38
2023-05-21T03:49:16.727Z,99279.47
2023-05-21T03:51:43.878Z,99289.88
2023-05-21T03:54:14.676Z,99287.47
2023-05-21T03:56:41.720Z,99282.59
2023-05-21T03:59:09.272Z,99289.69
2023-05-21T04:01:36.708Z,99290.22
2023-05-21T04:04:05.432Z,99289.88
2023-05-21T04:06:34.799Z,99289.00
2023-05-21T04:09:01.740Z,99287.91
2023-05-21T04:11:29.914Z,99286.59
2023-05-21T04:13:57.133Z,99294.78
2023-05-21T04:16:24.932Z,99292.31
2023-05-21T04:18:53.495Z,99300.31
2023-05-21T04:21:21.027Z,99298.44
2023-05-21T04:23:49.464Z,99299.59
2023-05-21T04:26:30.259Z,99305.91
2023-05-21T04:28:58.775Z,99295.81
2023-05-21T04:31:25.959Z,99305.06
2023-05-21T04:34:14.148Z,99315.75
2023-05-21T04:36:41.947Z,99310.63
2023-05-21T04:39:11.139Z,99317.19
2023-05-21T04:41:38.655Z,99314.13
2023-05-21T04:44:07.739Z,99326.38
2023-05-21T04:46:35.641Z,99327.38
2023-05-21T04:49:02.810Z,99322.72
2023-05-21T04:51:30.129Z,99325.03
2023-05-21T04:53:57.534Z,99339.16
2023-05-21T04:56:26.057Z,99331.28
2023-05-21T04:58:53.599Z,99331.00
2023-05-21T05:01:21.476Z,99331.53
2023-05-21T05:03:49.655Z,99334.53
2023-05-21T05:06:17.113Z,99341.59
2023-05-21T05:08:45.339Z,99332.66
2023-05-21T05:11:12.360Z,99330.69
2023-05-21T05:13:41.315Z,99330.84
2023-05-21T05:16:08.950Z,99330.16
2023-05-21T05:18:36.825Z,99321.97
2023-05-21T05:21:04.185Z,99320.78
2023-05-21T05:23:31.912Z,99320.84
2023-05-21T05:25:58.923Z,99327.44
2023-05-21T05:28:26.003Z,99327.25
2023-05-21T05:30:54.511Z,99332.81
2023-05-21T05:33:24.666Z,99320.63
2023-05-21T05:35:51.594Z,99327.50
2023-05-21T05:38:18.545Z,99316.41
2023-05-21T05:40:45.668Z,99320.84
2023-05-21T05:43:12.841Z,99320.91
2023-05-21T05:45:40.179Z,99322.88
2023-05-21T05:48:14.012Z,99332.47
2023-05-21T05:50:42.209Z,99331.44
2023-05-21T05:53:10.489Z,99329.00
2023-05-21T05:55:37.929Z,99330.13
2023-05-21T05:58:05.682Z,99326.84
2023-05-21T06:00:38.854Z,99335.03
2023-05-21T06:03:05.970Z,99328.97
2023-05-21T06:05:35.370Z,99325.69
2023-05-21T06:08:02.552Z,99329.75
2023-05-21T06:10:30.600Z,99329.78
2023-05-21T06:12:57.606Z,99330.56
2023-05-21T06:15:24.550Z,99336.34
2023-05-21T06:17:52.440Z,99331.41
2023-05-21T06:20:19.759Z,99333.00
2023-05-21T06:22:48.205Z,99338.25
2023-05-21T06:25:16.130Z,99334.63
2023-05-21T06:27:43.512Z,99330.19
2023-05-21T06:30:18.112Z,99335.84
2023-05-21T06:32:45.453Z,99325.16
2023-05-21T06:35:12.572Z,99326.97
2023-05-21T06:37:39.393Z,99328.19
2023-05-21T06:40:10.130Z,99325.78
2023-05-21T06:42:37.753Z,99331.03
2023-05-21T06:45:36.658Z,99324.69
2023-05-21T06:48:18.963Z,99329.66
2023-05-21T06:50:48.063Z,99332.97
2023-05-21T06:53:15.007Z,99339.03
2023-05-21T06:55:43.727Z,99336.63
2023-05-21T06:58:21.313Z,99331.88
2023-05-21T07:00:49.035Z,99332.91
2023-05-21T07:03:16.259Z,99335.66
2023-05-21T07:05:43.351Z,99334.56
2023-05-21T07:08:12.002Z,99340.06
2023-05-21T07:10:39.532Z,99322.44
2023-05-21T07:13:08.280Z,99320.59
2023-05-21T07:15:38.009Z,99331.56
2023-05-21T07:18:05.148Z,99334.47
2023-05-21T07:20:32.098Z,99335.72
2023-05-21T07:23:02.562Z,99334.41
2023-05-21T07:25:30.579Z,99332.88
2023-05-21T07:27:57.783Z,99335.63
2023-05-21T07:30:29.749Z,99335.63
2023-05-21T07:32:57.801Z,99324.72
2023-05-21T07:35:25.097Z,99319.09
2023-05-21T07:37:52.101Z,99331.31
2023-05-21T07:40:19.274Z,99323.00
2023-05-21T07:42:47.492Z,99320.31
2023-05-21T07:45:17.549Z,99322.72
2023-05-21T07:47:46.583Z,99326.38
2023-05-21T07:50:14.815Z,99318.97
2023-05-21T07:52:42.465Z,99315.88
2023-05-21T07:55:09.953Z,99319.16
2023-05-21T07:57:39.422Z,99320.13
2023-05-21T08:00:11.836Z,99316.38
2023-05-21T08:02:54.200Z,99319.66
2023-05-21T08:05:21.467Z,99315.88
2023-05-21T08:07:49.377Z,99316.69
2023-05-21T08:10:19.151Z,99325.72
2023-05-21T08:12:49.296Z,99312.81
2023-05-21T08:15:16.487Z,99314.81
2023-05-21T08:17:46.591Z,99320.28
2023-05-21T08:20:15.505Z,99313.47
2023-05-21T08:22:44.432Z,99321.66
2023-05-21T08:25:12.174Z,99323.44
2023-05-21T08:27:39.246Z,99316.22
2023-05-21T08:30:08.481Z,99318.97
2023-05-21T08:32:38.626Z,99323.69
2023-05-21T08:35:07.287Z,99326.34
2023-05-21T08:38:27.041Z,99322.59
2023-05-21T08:41:00.923Z,99311.25
2023-05-21T08:43:30.154Z,99320.28
2023-05-21T08:46:03.480Z,99313.34
2023-05-21T08:48:35.030Z,99317.28
2023-05-21T08:51:02.499Z,99314.91
2023-05-21T08:53:34.774Z,99320.22
2023-05-21T08:56:06.609Z,99319.41
2023-05-21T08:58:49.582Z,99323.97
2023-05-21T09:01:23.412Z,99323.25
2023-05-21T09:04:04.875Z,99327.09
2023-05-21T09:06:36.416Z,99332.88
2023-05-21T09:09:15.505Z,99317.53
2023-05-21T09:11:47.924Z,99326.50
2023-05-21T09:14:15.159Z,99323.22
2023-05-21T09:16:59.076Z,99319.19
2023-05-21T09:19:26.924Z,99319.78
2023-05-21T09:21:54.299Z,99318.25
2023-05-21T09:24:31.499Z,99323.09
2023-05-21T09:26:59.268Z,99318.03
2023-05-21T09:29:27.076Z,99314.47
2023-05-21T09:31:54.792Z,99324.72
2023-05-21T09:34:25.229Z,99315.44
2023-05-21T09:36:56.623Z,99316.78
2023-05-21T09:39:30.997Z,99317.31
2023-05-21T09:42:03.018Z,99319.03
2023-05-21T09:44:30.297Z,99313.63
2023-05-21T09:46:58.149Z,99320.91
2023-05-21T09:49:26.755Z,99313.00
2023-05-21T09:51:56.088Z,99316.03
2023-05-21T09:54:23.338Z,99313.38
2023-05-21T09:56:53.657Z,99320.88
2023-05-21T09:59:22.280Z,99309.88
2023-05-21T10:01:51.831Z,99312.41
2023-05-21T10:04:21.680Z,99310.50
2023-05-21T10:06:50.774Z,99304.97
2023-05-21T10:09:20.566Z,99303.00
2023-05-21T10:11:54.375Z,99306.53
2023-05-21T10:14:27.586Z,99292.72
2023-05-21T10:16:55.778Z,99304.16
2023-05-21T10:19:24.992Z,99298.63
2023-05-21T10:21:54.038Z,99295.16
2023-05-21T10:24:23.367Z,99297.59
2023-05-21T10:26:51.639Z,99289.31
2023-05-21T10:29:23.028Z,99284.09
2023-05-21T10:31:53.682Z,99288.03
2023-05-21T10:34:23.589Z,99280.38
2023-05-21T10:36:54.625Z,99286.56
2023-05-21T10:39:25.327Z,99275.31
2023-05-21T10:42:18.646Z,99273.38
2023-05-21T10:45:11.920Z,99274.56
2023-05-21T10:48:05.389Z,99285.31
2023-05-21T10:51:07.180Z,99283.88
2023-05-21T10:53:54.675Z,99283.84
2023-05-21T10:56:28.558Z,99286.53
2023-05-21T10:59:14.841Z,99270.53
2023-05-21T11:01:43.964Z,99275.16
2023-05-21T11:04:12.012Z,99269.59
2023-05-21T11:06:40.668Z,99269.13
2023-05-21T11:09:15.158Z,99270.53
2023-05-21T11:11:44.921Z,99271.22
2023-05-21T11:14:30.755Z,99276.44
2023-05-21T11:16:59.611Z,99264.38
2023-05-21T11:19:36.166Z,99267.59
2023-05-21T11:22:21.356Z,99278.59
2023-05-21T11:24:51.993Z,99264.53
2023-05-21T11:27:33.708Z,99276.16
2023-05-21T11:30:05.240Z,99267.19
2023-05-21T11:32:37.862Z,99265.28
2023-05-21T11:35:06.236Z,99259.63
2023-05-21T11:37:35.529Z,99251.63
2023-05-21T11:40:26.957Z,99263.78
2023-05-21T11:42:55.938Z,99259.50
2023-05-21T11:45:27.910Z,99257.31
2023-05-21T11:47:57.187Z,99249.06
2023-05-21T11:50:25.768Z,99253.56
2023-05-21T11:52:52.757Z,99239.81
2023-05-21T11:55:24.788Z,99255.19
2023-05-21T11:57:54.188Z,99240.34
2023-05-21T12:00:21.356Z,99242.63
2023-05-21T12:02:52.354Z,99248.28
2023-05-21T12:05:20.994Z,99247.56
2023-05-21T12:07:49.529Z,99244.44
2023-05-21T12:10:20.404Z,99246.22
2023-05-21T12:12:54.944Z,99243.38
2023-05-21T12:15:24.590Z,99245.94
2023-05-21T12:17:53.222Z,99242.06
2023-05-21T12:20:22.465Z,99246.03
2023-05-21T12:22:50.316Z,99240.59
2023-05-21T12:25:19.181Z,99242.41
2023-05-21T12:27:48.771Z,99239.69
2023-05-21T12:33:12.809Z,99240.38
2023-05-21T12:35:41.178Z,99248.09
2023-05-21T12:38:08.779Z,99243.91
2023-05-21T12:40:37.979Z,99233.94
2023-05-21T12:43:06.499Z,99232.91
2023-05-21T12:45:34.361Z,99236.16
2023-05-21T12:48:03.368Z,99239.03
2023-05-21T12:50:30.536Z,99234.84
2023-05-21T12:52:59.064Z,99238.44
2023-05-21T12:55:26.006Z,99243.88
2023-05-21T12:58:02.742Z,99246.78
2023-05-21T13:00:31.924Z,99240.19
2023-05-21T13:03:00.367Z,99243.84
2023-05-21T13:05:27.542Z,99245.53
2023-05-21T13:07:54.845Z,99239.09
2023-05-21T13:10:23.198Z,99243.38
2023-05-21T13:12:51.271Z,99239.03
2023-05-21T13:15:19.119Z,99233.41
2023-05-21T13:17:49.157Z,99235.31
2023-05-21T13:20:20.049Z,99237.06
2023-05-21T13:22:49.224Z,99232.75
2023-05-21T13:25:18.964Z,99246.38
2023-05-21T13:27:49.300Z,99234.69
2023-05-21T13:33:29.703Z,99229.56
2023-05-21T13:35:56.733Z,99229.22
2023-05-21T13:38:23.633Z,99237.84
2023-05-21T13:40:51.537Z,99233.97
2023-05-21T13:43:19.864Z,99232.81
2023-05-21T13:45:49.603Z,99230.63
2023-05-21T13:48:18.378Z,99220.28
2023-05-21T13:50:45.815Z,99232.25
2023-05-21T13:53:12.992Z,99230.91
2023-05-21T13:55:40.775Z,99225.91
2023-05-21T13:58:10.930Z,99224.81
2023-05-21T14:00:40.931Z,99229.06
2023-05-21T14:03:08.369Z,99225.31
2023-05-21T14:05:35.385Z,99222.63
2023-05-21T14:08:02.394Z,99224.72
2023-05-21T14:10:29.859Z,99227.38
2023-05-21T14:13:01.693Z,99226.25
2023-05-21T14:15:41.260Z,99223.94
2023-05-21T14:18:11.552Z,99224.50
2023-05-21T14:20:39.472Z,99219.13
2023-05-21T14:23:06.688Z,99221.59
2023-05-21T14:25:35.719Z,99228.09
2023-05-21T14:28:03.232Z,99227.31
2023-05-21T14:30:53.345Z,99224.91
2023-05-21T14:33:21.802Z,99221.63
2023-05-21T14:35:49.183Z,99230.69
2023-05-21T14:38:16.886Z,99228.53
2023-05-21T14:40:44.388Z,99227.19
2023-05-21T14:43:11.698Z,99222.91
2023-05-21T14:45:38.916Z,99223.19
2023-05-21T14:48:07.684Z,99220.59
2023-05-21T14:50:36.457Z,99213.81
2023-05-21T14:53:07.726Z,99215.81
2023-05-21T14:55:37.326Z,99217.22
2023-05-21T14:58:05.910Z,99217.41
2023-05-21T15:00:41.505Z,99205.81
2023-05-21T15:04:07.291Z,99213.78
2023-05-21T15:06:40.341Z,99211.78
2023-05-21T15:09:12.271Z,99205.75
2023-05-21T15:11:40.692Z,99205.50
2023-05-21T15:14:46.837Z,99203.47
2023-05-21T15:17:53.200Z,99204.66
2023-05-21T15:20:22.488Z,99207.94
2023-05-21T15:22:49.604Z,99199.72
2023-05-21T15:25:19.333Z,99209.38
2023-05-21T15:27:56.142Z,99205.88
2023-05-21T15:33:09.114Z,99204.50
2023-05-21T15:35:38.126Z,99199.69
2023-05-21T15:38:05.536Z,99189.09
2023-05-21T15:40:32.735Z,99206.94
2023-05-21T15:42:59.991Z,99203.00
2023-05-21T15:45:29.674Z,99203.00
2023-05-21T15:47:58.549Z,99199.56
2023-05-21T15:50:25.621Z,99186.72
2023-05-21T15:52:53.945Z,99187.19
2023-05-21T15:55:21.192Z,99188.81
2023-05-21T15:57:50.622Z,99187.19
2023-05-21T16:00:18.175Z,99200.03
2023-05-21T16:02:45.126Z,99184.59
2023-05-21T16:05:12.219Z,99199.56
2023-05-21T16:07:40.178Z,99197.28
2023-05-21T16:10:10.592Z,99190.63
2023-05-21T16:12:38.148Z,99192.56
2023-05-21T16:15:06.797Z,99193.69
2023-05-21T16:17:33.880Z,99195.03
2023-05-21T16:20:01.858Z,99194.84
2023-05-21T16:22:31.291Z,99192.25
2023-05-21T16:24:59.842Z,99194.38
2023-05-21T16:27:28.226Z,99197.63
2023-05-21T16:29:55.169Z,99194.19
2023-05-21T16:32:22.724Z,99195.00
2023-05-21T16:34:50.071Z,99202.66
2023-05-21T16:37:17.234Z,99196.31
2023-05-21T16:39:44.223Z,99202.84
2023-05-21T16:42:20.880Z,99196.31
2023-05-21T16:45:00.285Z,99205.63
2023-05-21T16:47:28.821Z,99197.31
2023-05-21T16:50:02.802Z,99198.91
2023-05-21T16:52:30.658Z,99205.78
2023-05-21T16:54:57.829Z,99192.06
2023-05-21T16:57:24.996Z,99195.00
2023-05-21T16:59:56.650Z,99189.94
2023-05-21T17:02:24.159Z,99190.41
2023-05-21T17:04:51.553Z,99187.66
2023-05-21T17:07:30.460Z,99194.66
2023-05-21T17:09:57.456Z,99191.28
2023-05-21T17:12:24.534Z,99198.09
2023-05-21T17:14:56.372Z,99189.63
2023-05-21T17:17:26.810Z,99200.38
2023-05-21T17:20:02.033Z,99196.66
2023-05-21T17:22:36.183Z,99193.88
2023-05-21T17:25:15.369Z,99197.78
2023-05-21T17:27:42.299Z,99185.91
2023-05-21T17:30:16.869Z,99179.25
2023-05-21T17:32:47.018Z,99185.09
2023-05-21T17:35:15.772Z,99197.31
2023-05-21T17:37:42.625Z,99193.69
2023-05-21T17:40:11.393Z,99191.25
2023-05-21T17:42:39.694Z,99198.59
2023-05-21T17:45:10.157Z,99200.53
2023-05-21T17:47:47.706Z,99197.28
2023-05-21T17:50:20.895Z,99196.59
2023-05-21T17:52:52.776Z,99193.13
2023-05-21T17:55:23.345Z,99199.63
2023-05-21T17:57:58.550Z,99202.19
2023-05-21T18:00:45.146Z,99197.28
2023-05-21T18:07:12.293Z,99206.75
2023-05-21T18:09:39.430Z,99203.97
2023-05-21T18:12:07.686Z,99208.00
2023-05-21T18:14:37.749Z,99214.34
2023-05-21T18:17:05.536Z,99199.31
2023-05-21T18:19:34.253Z,99206.25
2023-05-21T18:22:05.522Z,99201.34
2023-05-21T18:24:37.859Z,99210.69
2023-05-21T18:27:05.566Z,99220.31
2023-05-21T18:29:34.823Z,99218.19
2023-05-21T18:32:02.460Z,99212.25
2023-05-21T18:34:29.506Z,99209.66
2023-05-21T18:36:58.434Z,99209.13
2023-05-21T18:39:25.344Z,99216.44
2023-05-21T18:42:01.562Z,99221.75
2023-05-21T18:44:32.724Z,99217.16
2023-05-21T18:46:59.876Z,99219.47
2023-05-21T18:49:26.828Z,99219.19
2023-05-21T18:51:53.857Z,99220.75
2023-05-21T18:54:22.936Z,99221.69
2023-05-21T18:56:50.010Z,99219.03
2023-05-21T18:59:16.993Z,99226.31
2023-05-21T19:01:44.335Z,99225.41
2023-05-21T19:04:14.455Z,99225.94
2023-05-21T19:06:41.457Z,99224.56
2023-05-21T19:09:08.745Z,99227.94
2023-05-21T19:11:38.757Z,99230.47
2023-05-21T19:14:06.112Z,99240.47
2023-05-21T19:16:33.237Z,99239.09
2023-05-21T19:19:00.524Z,99236.06
2023-05-21T19:21:28.283Z,99232.97
2023-05-21T19:24:21.065Z,99243.00
2023-05-21T19:26:49.690Z,99238.41
2023-05-21T19:29:17.562Z,99246.53
2023-05-21T19:31:45.107Z,99252.50
2023-05-21T19:34:12.524Z,99249.50
2023-05-21T19:36:52.034Z,99254.72
2023-05-21T19:39:30.659Z,99259.56
2023-05-21T19:41:59.277Z,99264.00
2023-05-21T19:44:26.680Z,99262.75
2023-05-21T19:47:08.464Z,99262.41
2023-05-21T19:49:39.130Z,99262.56
2023-05-21T19:52:27.161Z,99265.66
2023-05-21T19:55:00.892Z,99267.78
2023-05-21T20:01:17.576Z,99267.28
2023-05-21T20:03:45.147Z,99276.50
2023-05-21T20:06:13.596Z,99277.44
2023-05-21T20:08:40.637Z,99278.00
2023-05-21T20:11:10.760Z,99281.59
2023-05-21T20:14:04.653Z,99279.09
2023-05-21T20:16:35.203Z,99279.94
2023-05-21T20:19:03.329Z,99285.72
2023-05-21T20:21:31.856Z,99284.59
2023-05-21T20:23:59.120Z,99280.75
2023-05-21T20:26:53.607Z,99284.63
2023-05-21T20:29:23.664Z,99290.78
2023-05-21T20:31:50.865Z,99279.84
2023-05-21T20:35:08.280Z,99284.09
2023-05-21T20:37:35.507Z,99284.34
2023-05-21T20:40:02.704Z,99280.00
2023-05-21T20:42:31.335Z,99282.22
2023-05-21T20:44:59.954Z,99281.09
2023-05-21T20:47:27.694Z,99279.16
2023-05-21T20:49:55.611Z,99277.78
2023-05-21T20:52:23.694Z,99283.16
2023-05-21T20:54:51.062Z,99284.25
2023-05-21T20:57:17.958Z,99281.50
2023-05-21T20:59:44.791Z,99282.84
2023-05-21T21:02:13.270Z,99285.31
2023-05-21T21:04:40.250Z,99280.72
2023-05-21T21:07:07.316Z,99284.59
2023-05-21T21:09:34.413Z,99284.34
2023-05-21T21:12:06.156Z,99292.31
2023-05-21T21:14:38.454Z,99280.00
2023-05-21T21:17:05.530Z,99298.06
2023-05-21T21:19:33.782Z,99294.53
2023-05-21T21:22:01.169Z,99289.31
2023-05-21T21:24:28.034Z,99289.59
2023-05-21T21:26:54.979Z,99286.56
2023-05-21T21:29:21.854Z,99294.22
2023-05-21T21:31:48.969Z,99291.22
2023-05-21T21:34:16.044Z,99294.19
2023-05-21T21:36:44.350Z,99290.38
2023-05-21T21:39:11.507Z,99289.00
2023-05-21T21:41:38.458Z,99296.38
2023-05-21T21:44:05.407Z,99291.75
2023-05-21T21:46:32.678Z,99306.56
2023-05-21T21:48:59.693Z,99294.28
2023-05-21T21:51:26.912Z,99294.50
2023-05-21T21:53:55.181Z,99293.16
2023-05-21T21:56:22.123Z,99296.44
2023-05-21T21:58:49.118Z,99300.25
2023-05-21T22:01:16.133Z,99292.59
2023-05-21T22:03:43.350Z,99297.25
2023-05-21T22:06:10.261Z,99295.56
2023-05-21T22:08:37.181Z,99298.03
2023-05-21T22:11:05.932Z,99300.19
2023-05-21T22:13:32.785Z,99301.78
2023-05-21T22:16:00.081Z,99299.34
2023-05-21T22:18:39.362Z,99300.44
2023-05-21T22:21:08.336Z,99302.38
2023-05-21T22:23:35.668Z,99305.66
2023-05-21T22:26:02.650Z,99306.19
2023-05-21T22:28:31.155Z,99303.47
2023-05-21T22:31:19.497Z,99299.84
2023-05-21T22:33:46.545Z,99297.22
2023-05-21T22:36:13.518Z,99298.25
2023-05-21T22:38:40.562Z,99311.91
2023-05-21T22:41:07.503Z,99303.19
2023-05-21T22:43:37.295Z,99297.47
2023-05-21T22:46:04.267Z,99300.50
2023-05-21T22:48:31.214Z,99299.72
2023-05-21T22:50:58.310Z,99302.47
2023-05-21T22:53:25.810Z,99303.91
2023-05-21T22:55:52.859Z,99293.53
2023-05-21T22:58:19.733Z,99295.94
2023-05-21T23:00:48.253Z,99300.31
2023-05-21T23:03:15.358Z,99298.91
2023-05-21T23:05:42.418Z,99308.13
2023-05-21T23:08:09.494Z,99309.72
2023-05-21T23:10:36.439Z,99311.84
2023-05-21T23:13:03.637Z,99306.03
2023-05-21T23:15:30.480Z,99307.94
2023-05-21T23:17:58.696Z,99307.97
2023-05-21T23:20:25.920Z,99299.75
2023-05-21T23:22:52.804Z,99303.56
2023-05-21T23:25:19.684Z,99300.81
2023-05-21T23:27:46.774Z,99307.97
2023-05-21T23:30:14.031Z,99306.84
2023-05-21T23:32:41.183Z,99311.22
2023-05-21T23:35:10.230Z,99314.72
2023-05-21T23:37:37.103Z,99324.28
2023-05-21T23:40:05.176Z,99317.63
2023-05-21T23:42:32.085Z,99319.47
2023-05-21T23:44:59.587Z,99319.22
2023-05-21T23:47:26.544Z,99319.16
2023-05-21T23:49:53.495Z,99322.13
2023-05-21T23:52:22.048Z,99314.53
2023-05-21T23:54:49.180Z,99316.75
2023-05-21T23:57:16.136Z,99313.50
2023-05-21T23:59:43.644Z,99320.19
